sensor_id;sensor_type;location;lat;lon;timestamp;pressure;altitude;pressure_sealevel;temperature;humidity
64404;BME280;50726;54.912;-8.392;2022-08-19T00:00:20;100048.53;;;23.51;nan
64404;BME280;50726;54.912;-8.392;2022-08-19T00:02:46;100046.44;;;23.54;nan
64404;BME280;50726;54.912;-8.392;2022-08-19T00:05:14;100040.44;;;24.03;nan
64404;BME280;50726;54.912;-8.392;2022-08-19T00:07:41;100034.47;;;24.40;nan
64404;BME280;50726;54.912;-8.392;2022-08-19T00:10:10;100060.13;;;23.71;nan
64404;BME280;50726;54.912;-8.392;2022-08-19T00:12:36;100019.41;;;23.38;nan
64404;BME280;50726;54.912;-8.392;2022-08-19T00:15:04;100025.63;;;23.79;nan
64404;BME280;50726;54.912;-8.392;2022-08-19T00:17:30;100040.75;;;24.10;nan
64404;BME280;50726;54.912;-8.392;2022-08-19T00:19:56;100062.84;;;23.28;nan
64404;BME280;50726;54.912;-8.392;2022-08-19T00:22:21;100026.75;;;23.24;nan
64404;BME280;50726;54.912;-8.392;2022-08-19T00:24:47;100034.09;;;23.11;nan
64404;BME280;50726;54.912;-8.392;2022-08-19T00:27:13;100062.59;;;22.89;nan
64404;BME280;50726;54.912;-8.392;2022-08-19T00:29:40;100063.56;;;23.09;nan
64404;BME280;50726;54.912;-8.392;2022-08-19T00:32:06;100060.28;;;22.51;nan
64404;BME280;50726;54.912;-8.392;2022-08-19T00:34:32;100085.28;;;22.83;nan
64404;BME280;50726;54.912;-8.392;2022-08-19T00:36:57;100048.63;;;22.64;nan
64404;BME280;50726;54.912;-8.392;2022-08-19T00:39:23;100051.44;;;22.84;nan
64404;BME280;50726;54.912;-8.392;2022-08-19T00:41:50;100048.94;;;23.03;nan
64404;BME280;50726;54.912;-8.392;2022-08-19T00:46:46;100038.81;;;22.97;nan
64404;BME280;50726;54.912;-8.392;2022-08-19T00:49:20;100061.13;;;23.39;nan
64404;BME280;50726;54.912;-8.392;2022-08-19T00:51:51;100054.84;;;22.86;nan
64404;BME280;50726;54.912;-8.392;2022-08-19T00:54:20;100060.63;;;22.70;nan
64404;BME280;50726;54.912;-8.392;2022-08-19T00:56:47;100041.59;;;23.17;nan
64404;BME280;50726;54.912;-8.392;2022-08-19T00:59:15;100057.94;;;23.45;nan
64404;BME280;50726;54.912;-8.392;2022-08-19T01:01:42;100070.41;;;23.23;nan
64404;BME280;50726;54.912;-8.392;2022-08-19T01:04:09;100055.34;;;23.33;nan
64404;BME280;50726;54.912;-8.392;2022-08-19T01:06:36;100063.38;;;23.22;nan
64404;BME280;50726;54.912;-8.392;2022-08-19T01:09:03;100061.38;;;23.36;nan
64404;BME280;50726;54.912;-8.392;2022-08-19T01:11:30;100033.72;;;22.94;nan
64404;BME280;50726;54.912;-8.392;2022-08-19T01:13:57;100061.66;;;23.64;nan
64404;BME280;50726;54.912;-8.392;2022-08-19T01:16:25;100035.09;;;23.93;nan
64404;BME280;50726;54.912;-8.392;2022-08-19T01:18:52;100053.16;;;23.49;nan
64404;BME280;50726;54.912;-8.392;2022-08-19T01:23:49;100038.53;;;23.00;nan
64404;BME280;50726;54.912;-8.392;2022-08-19T01:26:19;100049.28;;;23.31;nan
64404;BME280;50726;54.912;-8.392;2022-08-19T01:28:47;100051.16;;;22.98;nan
64404;BME280;50726;54.912;-8.392;2022-08-19T01:31:18;100046.13;;;22.84;nan
64404;BME280;50726;54.912;-8.392;2022-08-19T01:33:44;100034.00;;;22.91;nan
64404;BME280;50726;54.912;-8.392;2022-08-19T01:36:23;100053.88;;;23.51;nan
64404;BME280;50726;54.912;-8.392;2022-08-19T01:38:49;100045.66;;;23.32;nan
64404;BME280;50726;54.912;-8.392;2022-08-19T01:41:17;100048.88;;;23.67;nan
64404;BME280;50726;54.912;-8.392;2022-08-19T01:43:43;100028.44;;;22.50;nan
64404;BME280;50726;54.912;-8.392;2022-08-19T01:46:09;100055.84;;;22.85;nan
64404;BME280;50726;54.912;-8.392;2022-08-19T01:48:39;100038.53;;;23.00;nan
64404;BME280;50726;54.912;-8.392;2022-08-19T01:51:05;100039.19;;;23.14;nan
64404;BME280;50726;54.912;-8.392;2022-08-19T01:53:30;100043.22;;;23.08;nan
64404;BME280;50726;54.912;-8.392;2022-08-19T01:55:58;100056.09;;;23.24;nan
64404;BME280;50726;54.912;-8.392;2022-08-19T01:58:27;100042.44;;;23.39;nan
64404;BME280;50726;54.912;-8.392;2022-08-19T02:00:56;100029.28;;;23.26;nan
64404;BME280;50726;54.912;-8.392;2022-08-19T02:03:22;100035.78;;;23.12;nan
64404;BME280;50726;54.912;-8.392;2022-08-19T02:05:54;100042.38;;;24.01;nan
64404;BME280;50726;54.912;-8.392;2022-08-19T02:08:20;100037.81;;;23.41;nan
64404;BME280;50726;54.912;-8.392;2022-08-19T02:10:46;100039.31;;;23.65;nan
64404;BME280;50726;54.912;-8.392;2022-08-19T02:13:13;100029.34;;;23.36;nan
64404;BME280;50726;54.912;-8.392;2022-08-19T02:15:40;100050.19;;;23.73;nan
64404;BME280;50726;54.912;-8.392;2022-08-19T02:18:06;100032.31;;;23.32;nan
64404;BME280;50726;54.912;-8.392;2022-08-19T02:20:32;100044.78;;;23.11;nan
64404;BME280;50726;54.912;-8.392;2022-08-19T02:22:59;100029.53;;;23.01;nan
64404;BME280;50726;54.912;-8.392;2022-08-19T02:25:27;100041.31;;;23.72;nan
64404;BME280;50726;54.912;-8.392;2022-08-19T02:27:52;100033.38;;;23.92;nan
64404;BME280;50726;54.912;-8.392;2022-08-19T02:30:19;100046.47;;;23.12;nan
64404;BME280;50726;54.912;-8.392;2022-08-19T02:32:45;100029.69;;;23.21;nan
64404;BME280;50726;54.912;-8.392;2022-08-19T02:35:12;100035.47;;;23.48;nan
64404;BME280;50726;54.912;-8.392;2022-08-19T02:37:39;100012.75;;;23.11;nan
64404;BME280;50726;54.912;-8.392;2022-08-19T02:40:23;100026.22;;;23.09;nan
64404;BME280;50726;54.912;-8.392;2022-08-19T02:42:49;100044.06;;;23.09;nan
64404;BME280;50726;54.912;-8.392;2022-08-19T02:45:15;100027.34;;;23.06;nan
64404;BME280;50726;54.912;-8.392;2022-08-19T02:47:41;100027.31;;;23.80;nan
64404;BME280;50726;54.912;-8.392;2022-08-19T02:50:08;100036.09;;;23.61;nan
64404;BME280;50726;54.912;-8.392;2022-08-19T02:52:34;100062.28;;;23.46;nan
64404;BME280;50726;54.912;-8.392;2022-08-19T02:55:00;100027.28;;;22.97;nan
64404;BME280;50726;54.912;-8.392;2022-08-19T02:57:26;100034.22;;;23.93;nan
64404;BME280;50726;54.912;-8.392;2022-08-19T02:59:52;100020.00;;;23.92;nan
64404;BME280;50726;54.912;-8.392;2022-08-19T03:02:19;100032.25;;;23.95;nan
64404;BME280;50726;54.912;-8.392;2022-08-19T03:04:45;100027.41;;;23.38;nan
64404;BME280;50726;54.912;-8.392;2022-08-19T03:07:15;100034.47;;;23.90;nan
64404;BME280;50726;54.912;-8.392;2022-08-19T03:09:41;100028.19;;;23.59;nan
64404;BME280;50726;54.912;-8.392;2022-08-19T03:12:10;100030.16;;;23.57;nan
64404;BME280;50726;54.912;-8.392;2022-08-19T03:14:36;100030.31;;;23.66;nan
64404;BME280;50726;54.912;-8.392;2022-08-19T03:17:03;100025.63;;;23.48;nan
64404;BME280;50726;54.912;-8.392;2022-08-19T03:19:30;100037.22;;;23.16;nan
64404;BME280;50726;54.912;-8.392;2022-08-19T03:21:57;100011.09;;;23.10;nan
64404;BME280;50726;54.912;-8.392;2022-08-19T03:24:23;100032.91;;;23.77;nan
64404;BME280;50726;54.912;-8.392;2022-08-19T03:26:53;100050.38;;;23.50;nan
64404;BME280;50726;54.912;-8.392;2022-08-19T03:29:24;100067.53;;;23.57;nan
64404;BME280;50726;54.912;-8.392;2022-08-19T03:31:50;100046.00;;;23.28;nan
64404;BME280;50726;54.912;-8.392;2022-08-19T03:34:20;100067.06;;;23.83;nan
64404;BME280;50726;54.912;-8.392;2022-08-19T03:36:47;100051.91;;;23.84;nan
64404;BME280;50726;54.912;-8.392;2022-08-19T03:39:13;100037.53;;;23.75;nan
64404;BME280;50726;54.912;-8.392;2022-08-19T03:41:43;100039.94;;;24.29;nan
64404;BME280;50726;54.912;-8.392;2022-08-19T03:44:09;100032.16;;;23.65;nan
64404;BME280;50726;54.912;-8.392;2022-08-19T03:46:35;100027.63;;;23.56;nan
64404;BME280;50726;54.912;-8.392;2022-08-19T03:49:03;100039.66;;;23.81;nan
64404;BME280;50726;54.912;-8.392;2022-08-19T03:51:36;100037.81;;;23.72;nan
64404;BME280;50726;54.912;-8.392;2022-08-19T03:54:03;100059.88;;;23.43;nan
64404;BME280;50726;54.912;-8.392;2022-08-19T03:56:29;100023.78;;;23.17;nan
64404;BME280;50726;54.912;-8.392;2022-08-19T03:58:56;100060.13;;;23.71;nan
64404;BME280;50726;54.912;-8.392;2022-08-19T04:01:25;100036.47;;;23.87;nan
64404;BME280;50726;54.912;-8.392;2022-08-19T04:03:55;100045.59;;;24.46;nan
64404;BME280;50726;54.912;-8.392;2022-08-19T04:06:27;100040.00;;;23.98;nan
64404;BME280;50726;54.912;-8.392;2022-08-19T04:08:55;100036.59;;;23.96;nan
64404;BME280;50726;54.912;-8.392;2022-08-19T04:11:26;100019.78;;;24.05;nan
64404;BME280;50726;54.912;-8.392;2022-08-19T04:13:53;100032.56;;;24.02;nan
64404;BME280;50726;54.912;-8.392;2022-08-19T04:16:20;100013.66;;;24.34;nan
64404;BME280;50726;54.912;-8.392;2022-08-19T04:18:47;100010.59;;;24.59;nan
64404;BME280;50726;54.912;-8.392;2022-08-19T04:21:19;100048.84;;;24.49;nan
64404;BME280;50726;54.912;-8.392;2022-08-19T04:23:46;100023.75;;;23.70;nan
64404;BME280;50726;54.912;-8.392;2022-08-19T04:26:14;100021.13;;;23.49;nan
64404;BME280;50726;54.912;-8.392;2022-08-19T04:28:42;100052.78;;;23.11;nan
64404;BME280;50726;54.912;-8.392;2022-08-19T04:31:13;100042.84;;;22.47;nan
64404;BME280;50726;54.912;-8.392;2022-08-19T04:33:40;100041.75;;;22.83;nan
64404;BME280;50726;54.912;-8.392;2022-08-19T04:36:07;100023.72;;;22.42;nan
64404;BME280;50726;54.912;-8.392;2022-08-19T04:38:33;100017.06;;;22.80;nan
64404;BME280;50726;54.912;-8.392;2022-08-19T04:41:04;100030.00;;;23.49;nan
64404;BME280;50726;54.912;-8.392;2022-08-19T04:43:48;99997.16;;;22.63;nan
64404;BME280;50726;54.912;-8.392;2022-08-19T04:46:15;100039.03;;;22.94;nan
64404;BME280;50726;54.912;-8.392;2022-08-19T04:48:42;100037.09;;;23.17;nan
64404;BME280;50726;54.912;-8.392;2022-08-19T04:51:11;100034.75;;;23.24;nan
64404;BME280;50726;54.912;-8.392;2022-08-19T04:53:40;100056.31;;;23.64;nan
64404;BME280;50726;54.912;-8.392;2022-08-19T04:56:12;100035.53;;;23.15;nan
64404;BME280;50726;54.912;-8.392;2022-08-19T04:58:40;100032.03;;;23.14;nan
64404;BME280;50726;54.912;-8.392;2022-08-19T05:01:13;100028.09;;;22.55;nan
64404;BME280;50726;54.912;-8.392;2022-08-19T05:03:39;100059.84;;;23.00;nan
64404;BME280;50726;54.912;-8.392;2022-08-19T05:06:06;100037.03;;;22.86;nan
64404;BME280;50726;54.912;-8.392;2022-08-19T05:08:34;100046.34;;;23.13;nan
64404;BME280;50726;54.912;-8.392;2022-08-19T05:11:00;100029.84;;;23.82;nan
64404;BME280;50726;54.912;-8.392;2022-08-19T05:13:26;100035.16;;;23.41;nan
64404;BME280;50726;54.912;-8.392;2022-08-19T05:15:57;100057.16;;;24.05;nan
64404;BME280;50726;54.912;-8.392;2022-08-19T05:18:23;100028.38;;;23.37;nan
64404;BME280;50726;54.912;-8.392;2022-08-19T05:21:09;100071.16;;;23.46;nan
64404;BME280;50726;54.912;-8.392;2022-08-19T05:23:53;100050.25;;;23.93;nan
64404;BME280;50726;54.912;-8.392;2022-08-19T05:26:19;100041.66;;;22.84;nan
64404;BME280;50726;54.912;-8.392;2022-08-19T05:28:45;100050.75;;;23.77;nan
64404;BME280;50726;54.912;-8.392;2022-08-19T05:31:11;100047.28;;;24.37;nan
64404;BME280;50726;54.912;-8.392;2022-08-19T05:33:36;100064.31;;;23.95;nan
64404;BME280;50726;54.912;-8.392;2022-08-19T05:36:02;100066.09;;;23.53;nan
64404;BME280;50726;54.912;-8.392;2022-08-19T05:38:28;100048.97;;;24.28;nan
64404;BME280;50726;54.912;-8.392;2022-08-19T05:40:55;100070.50;;;23.33;nan
64404;BME280;50726;54.912;-8.392;2022-08-19T05:43:21;100073.50;;;23.71;nan
64404;BME280;50726;54.912;-8.392;2022-08-19T05:45:47;100063.53;;;23.73;nan
64404;BME280;50726;54.912;-8.392;2022-08-19T05:48:13;100081.59;;;23.17;nan
64404;BME280;50726;54.912;-8.392;2022-08-19T05:50:41;100065.56;;;23.59;nan
64404;BME280;50726;54.912;-8.392;2022-08-19T05:53:07;100059.66;;;23.56;nan
64404;BME280;50726;54.912;-8.392;2022-08-19T05:55:35;100055.84;;;23.90;nan
64404;BME280;50726;54.912;-8.392;2022-08-19T05:58:03;100045.50;;;23.34;nan
64404;BME280;50726;54.912;-8.392;2022-08-19T06:00:28;100091.63;;;23.46;nan
64404;BME280;50726;54.912;-8.392;2022-08-19T06:02:56;100027.78;;;23.12;nan
64404;BME280;50726;54.912;-8.392;2022-08-19T06:05:30;100077.09;;;24.32;nan
64404;BME280;50726;54.912;-8.392;2022-08-19T06:07:56;100069.28;;;23.78;nan
64404;BME280;50726;54.912;-8.392;2022-08-19T06:10:21;100074.06;;;24.06;nan
64404;BME280;50726;54.912;-8.392;2022-08-19T06:12:48;100066.34;;;25.60;nan
64404;BME280;50726;54.912;-8.392;2022-08-19T06:15:14;100078.25;;;24.69;nan
64404;BME280;50726;54.912;-8.392;2022-08-19T06:17:40;100078.19;;;23.89;nan
64404;BME280;50726;54.912;-8.392;2022-08-19T06:20:10;100115.34;;;24.33;nan
64404;BME280;50726;54.912;-8.392;2022-08-19T06:22:41;100063.63;;;24.44;nan
64404;BME280;50726;54.912;-8.392;2022-08-19T06:25:08;100077.22;;;23.90;nan
64404;BME280;50726;54.912;-8.392;2022-08-19T06:27:35;100095.50;;;27.20;nan
64404;BME280;50726;54.912;-8.392;2022-08-19T06:30:02;100080.47;;;23.93;nan
64404;BME280;50726;54.912;-8.392;2022-08-19T06:32:27;100065.41;;;23.51;nan
64404;BME280;50726;54.912;-8.392;2022-08-19T06:34:54;100091.19;;;23.72;nan
64404;BME280;50726;54.912;-8.392;2022-08-19T06:37:20;100082.94;;;24.16;nan
64404;BME280;50726;54.912;-8.392;2022-08-19T06:39:47;100075.41;;;23.59;nan
64404;BME280;50726;54.912;-8.392;2022-08-19T06:42:14;100069.19;;;24.21;nan
64404;BME280;50726;54.912;-8.392;2022-08-19T06:44:43;100083.28;;;25.31;nan
64404;BME280;50726;54.912;-8.392;2022-08-19T06:47:14;100081.94;;;26.86;nan
64404;BME280;50726;54.912;-8.392;2022-08-19T06:49:42;100071.78;;;24.82;nan
64404;BME280;50726;54.912;-8.392;2022-08-19T06:52:08;100066.72;;;23.98;nan
64404;BME280;50726;54.912;-8.392;2022-08-19T06:54:33;100072.09;;;23.67;nan
64404;BME280;50726;54.912;-8.392;2022-08-19T06:57:00;100087.00;;;23.27;nan
64404;BME280;50726;54.912;-8.392;2022-08-19T06:59:30;100062.38;;;22.80;nan
64404;BME280;50726;54.912;-8.392;2022-08-19T07:02:00;100073.25;;;22.56;nan
64404;BME280;50726;54.912;-8.392;2022-08-19T07:04:29;100068.97;;;24.53;nan
64404;BME280;50726;54.912;-8.392;2022-08-19T07:07:00;100055.56;;;21.99;nan
64404;BME280;50726;54.912;-8.392;2022-08-19T07:09:27;100071.94;;;23.99;nan
64404;BME280;50726;54.912;-8.392;2022-08-19T07:11:53;100068.28;;;23.38;nan
64404;BME280;50726;54.912;-8.392;2022-08-19T07:14:22;100080.09;;;24.98;nan
64404;BME280;50726;54.912;-8.392;2022-08-19T07:16:51;100073.19;;;25.05;nan
64404;BME280;50726;54.912;-8.392;2022-08-19T07:19:18;100061.97;;;24.82;nan
64404;BME280;50726;54.912;-8.392;2022-08-19T07:21:45;100072.41;;;25.91;nan
64404;BME280;50726;54.912;-8.392;2022-08-19T07:24:11;100053.66;;;23.32;nan
64404;BME280;50726;54.912;-8.392;2022-08-19T07:26:40;100078.72;;;24.13;nan
64404;BME280;50726;54.912;-8.392;2022-08-19T07:29:07;100095.31;;;25.75;nan
64404;BME280;50726;54.912;-8.392;2022-08-19T07:31:34;100086.00;;;24.72;nan
64404;BME280;50726;54.912;-8.392;2022-08-19T07:34:03;100095.44;;;25.73;nan
64404;BME280;50726;54.912;-8.392;2022-08-19T07:36:34;100097.28;;;25.15;nan
64404;BME280;50726;54.912;-8.392;2022-08-19T07:39:10;100098.94;;;24.57;nan
64404;BME280;50726;54.912;-8.392;2022-08-19T07:41:37;100040.38;;;24.15;nan
64404;BME280;50726;54.912;-8.392;2022-08-19T07:44:05;100100.63;;;24.58;nan
64404;BME280;50726;54.912;-8.392;2022-08-19T07:46:37;100106.66;;;24.60;nan
64404;BME280;50726;54.912;-8.392;2022-08-19T07:49:06;100099.84;;;23.85;nan
64404;BME280;50726;54.912;-8.392;2022-08-19T07:51:33;100137.88;;;23.78;nan
64404;BME280;50726;54.912;-8.392;2022-08-19T07:53:59;100102.72;;;24.45;nan
64404;BME280;50726;54.912;-8.392;2022-08-19T07:56:25;100112.88;;;25.30;nan
64404;BME280;50726;54.912;-8.392;2022-08-19T07:58:51;100119.34;;;24.07;nan
64404;BME280;50726;54.912;-8.392;2022-08-19T08:01:22;100071.63;;;24.03;nan
64404;BME280;50726;54.912;-8.392;2022-08-19T08:03:48;100093.47;;;24.69;nan
64404;BME280;50726;54.912;-8.392;2022-08-19T08:06:33;100096.81;;;24.71;nan
64404;BME280;50726;54.912;-8.392;2022-08-19T08:09:29;100071.94;;;25.00;nan
64404;BME280;50726;54.912;-8.392;2022-08-19T08:11:59;100103.56;;;24.55;nan
64404;BME280;50726;54.912;-8.392;2022-08-19T08:14:49;100095.28;;;24.58;nan
64404;BME280;50726;54.912;-8.392;2022-08-19T08:17:18;100102.47;;;25.07;nan
64404;BME280;50726;54.912;-8.392;2022-08-19T08:19:45;100093.47;;;24.98;nan
64404;BME280;50726;54.912;-8.392;2022-08-19T08:22:14;100088.09;;;23.98;nan
64404;BME280;50726;54.912;-8.392;2022-08-19T08:25:09;100124.63;;;25.77;nan
64404;BME280;50726;54.912;-8.392;2022-08-19T08:27:42;100123.03;;;25.16;nan
64404;BME280;50726;54.912;-8.392;2022-08-19T08:30:12;100121.78;;;24.81;nan
64404;BME280;50726;54.912;-8.392;2022-08-19T08:32:39;100112.09;;;23.24;nan
64404;BME280;50726;54.912;-8.392;2022-08-19T08:35:07;100140.16;;;23.82;nan
64404;BME280;50726;54.912;-8.392;2022-08-19T08:37:33;100140.03;;;23.20;nan
64404;BME280;50726;54.912;-8.392;2022-08-19T08:40:04;100116.19;;;24.02;nan
64404;BME280;50726;54.912;-8.392;2022-08-19T08:42:35;100118.78;;;24.74;nan
64404;BME280;50726;54.912;-8.392;2022-08-19T08:45:06;100118.47;;;25.46;nan
64404;BME280;50726;54.912;-8.392;2022-08-19T08:47:44;100099.47;;;25.40;nan
64404;BME280;50726;54.912;-8.392;2022-08-19T08:52:53;100110.03;;;23.70;nan
64404;BME280;50726;54.912;-8.392;2022-08-19T08:55:24;100133.97;;;25.53;nan
64404;BME280;50726;54.912;-8.392;2022-08-19T09:00:32;100124.22;;;24.33;nan
64404;BME280;50726;54.912;-8.392;2022-08-19T09:02:58;100100.16;;;24.33;nan
64404;BME280;50726;54.912;-8.392;2022-08-19T09:10:53;100121.19;;;25.27;nan
64404;BME280;50726;54.912;-8.392;2022-08-19T09:13:44;100122.19;;;25.16;nan
64404;BME280;50726;54.912;-8.392;2022-08-19T09:16:20;100124.72;;;23.86;nan
64404;BME280;50726;54.912;-8.392;2022-08-19T09:18:48;100110.97;;;24.22;nan
64404;BME280;50726;54.912;-8.392;2022-08-19T09:21:18;100114.97;;;24.57;nan
64404;BME280;50726;54.912;-8.392;2022-08-19T09:23:44;100088.66;;;24.52;nan
64404;BME280;50726;54.912;-8.392;2022-08-19T09:26:12;100130.78;;;24.19;nan
64404;BME280;50726;54.912;-8.392;2022-08-19T09:28:40;100125.69;;;24.16;nan
64404;BME280;50726;54.912;-8.392;2022-08-19T09:31:10;100123.91;;;24.87;nan
64404;BME280;50726;54.912;-8.392;2022-08-19T09:33:37;100111.22;;;23.87;nan
64404;BME280;50726;54.912;-8.392;2022-08-19T09:36:05;100129.63;;;25.32;nan
64404;BME280;50726;54.912;-8.392;2022-08-19T09:38:31;100125.09;;;24.53;nan
64404;BME280;50726;54.912;-8.392;2022-08-19T09:41:02;100113.16;;;24.67;nan
64404;BME280;50726;54.912;-8.392;2022-08-19T09:43:28;100126.44;;;24.28;nan
64404;BME280;50726;54.912;-8.392;2022-08-19T09:45:53;100090.72;;;23.36;nan
64404;BME280;50726;54.912;-8.392;2022-08-19T09:48:19;100134.53;;;23.00;nan
64404;BME280;50726;54.912;-8.392;2022-08-19T09:50:45;100110.00;;;24.43;nan
64404;BME280;50726;54.912;-8.392;2022-08-19T09:53:10;100069.28;;;24.90;nan
64404;BME280;50726;54.912;-8.392;2022-08-19T09:55:42;100063.13;;;23.46;nan
64404;BME280;50726;54.912;-8.392;2022-08-19T09:58:07;100065.31;;;24.54;nan
64404;BME280;50726;54.912;-8.392;2022-08-19T10:00:33;100070.78;;;24.73;nan
64404;BME280;50726;54.912;-8.392;2022-08-19T10:02:59;100123.03;;;23.85;nan
64404;BME280;50726;54.912;-8.392;2022-08-19T10:05:25;100134.50;;;24.48;nan
64404;BME280;50726;54.912;-8.392;2022-08-19T10:08:10;100091.75;;;23.23;nan
64404;BME280;50726;54.912;-8.392;2022-08-19T10:10:37;100084.91;;;23.09;nan
64404;BME280;50726;54.912;-8.392;2022-08-19T10:13:03;100075.63;;;23.03;nan
64404;BME280;50726;54.912;-8.392;2022-08-19T10:15:29;100114.84;;;23.77;nan
64404;BME280;50726;54.912;-8.392;2022-08-19T10:17:55;100099.97;;;24.25;nan
64404;BME280;50726;54.912;-8.392;2022-08-19T10:20:21;100113.88;;;24.09;nan
64404;BME280;50726;54.912;-8.392;2022-08-19T10:22:48;100106.06;;;23.65;nan
64404;BME280;50726;54.912;-8.392;2022-08-19T10:25:14;100083.03;;;23.21;nan
64404;BME280;50726;54.912;-8.392;2022-08-19T10:27:42;100096.22;;;23.96;nan
64404;BME280;50726;54.912;-8.392;2022-08-19T10:30:08;100118.59;;;24.05;nan
64404;BME280;50726;54.912;-8.392;2022-08-19T10:32:34;100113.25;;;24.46;nan
64404;BME280;50726;54.912;-8.392;2022-08-19T10:35:00;100097.72;;;24.91;nan
64404;BME280;50726;54.912;-8.392;2022-08-19T10:37:26;100132.94;;;24.04;nan
64404;BME280;50726;54.912;-8.392;2022-08-19T10:39:51;100108.56;;;24.29;nan
64404;BME280;50726;54.912;-8.392;2022-08-19T10:42:17;100112.38;;;24.26;nan
64404;BME280;50726;54.912;-8.392;2022-08-19T10:44:44;100104.13;;;25.38;nan
64404;BME280;50726;54.912;-8.392;2022-08-19T10:47:10;100113.06;;;25.76;nan
64404;BME280;50726;54.912;-8.392;2022-08-19T10:49:36;100117.66;;;26.50;nan
64404;BME280;50726;54.912;-8.392;2022-08-19T10:52:24;100126.44;;;26.14;nan
64404;BME280;50726;54.912;-8.392;2022-08-19T10:55:03;100112.06;;;26.15;nan
64404;BME280;50726;54.912;-8.392;2022-08-19T10:57:48;100119.59;;;26.01;nan
64404;BME280;50726;54.912;-8.392;2022-08-19T11:00:14;100122.78;;;26.15;nan
64404;BME280;50726;54.912;-8.392;2022-08-19T11:02:40;100117.66;;;25.36;nan
64404;BME280;50726;54.912;-8.392;2022-08-19T11:05:07;100121.06;;;25.18;nan
64404;BME280;50726;54.912;-8.392;2022-08-19T11:07:37;100132.50;;;26.44;nan
64404;BME280;50726;54.912;-8.392;2022-08-19T11:10:04;100123.91;;;26.40;nan
64404;BME280;50726;54.912;-8.392;2022-08-19T11:12:31;100212.25;;;25.94;nan
64404;BME280;50726;54.912;-8.392;2022-08-19T11:14:58;100153.44;;;24.96;nan
64404;BME280;50726;54.912;-8.392;2022-08-19T11:17:23;100139.25;;;24.85;nan
64404;BME280;50726;54.912;-8.392;2022-08-19T11:19:49;100127.75;;;25.52;nan
64404;BME280;50726;54.912;-8.392;2022-08-19T11:22:16;100130.69;;;26.07;nan
64404;BME280;50726;54.912;-8.392;2022-08-19T11:24:42;100135.88;;;25.80;nan
64404;BME280;50726;54.912;-8.392;2022-08-19T11:27:10;100160.13;;;26.17;nan
64404;BME280;50726;54.912;-8.392;2022-08-19T11:29:39;100147.88;;;26.70;nan
64404;BME280;50726;54.912;-8.392;2022-08-19T11:32:07;100203.72;;;27.03;nan
64404;BME280;50726;54.912;-8.392;2022-08-19T11:34:34;100148.16;;;26.67;nan
64404;BME280;50726;54.912;-8.392;2022-08-19T11:37:01;100153.09;;;27.26;nan
64404;BME280;50726;54.912;-8.392;2022-08-19T11:39:28;100126.50;;;27.59;nan
64404;BME280;50726;54.912;-8.392;2022-08-19T11:41:55;100135.41;;;26.33;nan
64404;BME280;50726;54.912;-8.392;2022-08-19T11:44:22;100141.88;;;25.64;nan
64404;BME280;50726;54.912;-8.392;2022-08-19T11:46:48;100129.28;;;27.76;nan
64404;BME280;50726;54.912;-8.392;2022-08-19T11:49:15;100131.44;;;25.41;nan
64404;BME280;50726;54.912;-8.392;2022-08-19T11:51:43;100150.47;;;27.34;nan
64404;BME280;50726;54.912;-8.392;2022-08-19T11:54:09;100164.81;;;26.89;nan
64404;BME280;50726;54.912;-8.392;2022-08-19T11:56:37;100173.91;;;27.69;nan
64404;BME280;50726;54.912;-8.392;2022-08-19T11:59:03;100187.69;;;25.22;nan
64404;BME280;50726;54.912;-8.392;2022-08-19T12:01:29;100190.91;;;27.33;nan
64404;BME280;50726;54.912;-8.392;2022-08-19T12:03:56;100203.16;;;24.88;nan
64404;BME280;50726;54.912;-8.392;2022-08-19T12:06:24;100210.63;;;24.94;nan
64404;BME280;50726;54.912;-8.392;2022-08-19T12:08:51;100201.34;;;25.18;nan
64404;BME280;50726;54.912;-8.392;2022-08-19T12:11:16;100182.94;;;24.54;nan
64404;BME280;50726;54.912;-8.392;2022-08-19T12:13:42;100204.03;;;25.58;nan
64404;BME280;50726;54.912;-8.392;2022-08-19T12:16:17;100227.81;;;25.31;nan
64404;BME280;50726;54.912;-8.392;2022-08-19T12:18:43;100208.00;;;28.03;nan
64404;BME280;50726;54.912;-8.392;2022-08-19T12:21:18;100231.41;;;26.09;nan
64404;BME280;50726;54.912;-8.392;2022-08-19T12:23:47;100205.16;;;27.70;nan
64404;BME280;50726;54.912;-8.392;2022-08-19T12:26:13;100224.84;;;24.54;nan
64404;BME280;50726;54.912;-8.392;2022-08-19T12:28:39;100236.56;;;25.33;nan
64404;BME280;50726;54.912;-8.392;2022-08-19T12:31:07;100251.63;;;25.25;nan
64404;BME280;50726;54.912;-8.392;2022-08-19T12:33:34;100234.56;;;25.85;nan
64404;BME280;50726;54.912;-8.392;2022-08-19T12:36:05;100255.41;;;26.01;nan
64404;BME280;50726;54.912;-8.392;2022-08-19T12:38:31;100247.25;;;25.43;nan
64404;BME280;50726;54.912;-8.392;2022-08-19T12:40:58;100261.44;;;24.94;nan
64404;BME280;50726;54.912;-8.392;2022-08-19T12:43:24;100242.28;;;24.99;nan
64404;BME280;50726;54.912;-8.392;2022-08-19T12:45:50;100255.44;;;25.52;nan
64404;BME280;50726;54.912;-8.392;2022-08-19T12:48:16;100272.75;;;25.97;nan
64404;BME280;50726;54.912;-8.392;2022-08-19T12:50:44;100266.47;;;25.68;nan
64404;BME280;50726;54.912;-8.392;2022-08-19T12:53:13;100252.03;;;25.40;nan
64404;BME280;50726;54.912;-8.392;2022-08-19T12:55:39;100249.34;;;25.00;nan
64404;BME280;50726;54.912;-8.392;2022-08-19T12:58:05;100274.28;;;25.11;nan
64404;BME280;50726;54.912;-8.392;2022-08-19T13:00:30;100263.06;;;25.27;nan
64404;BME280;50726;54.912;-8.392;2022-08-19T13:02:58;100278.81;;;25.50;nan
64404;BME280;50726;54.912;-8.392;2022-08-19T13:05:26;100275.72;;;26.04;nan
64404;BME280;50726;54.912;-8.392;2022-08-19T13:07:54;100281.97;;;25.65;nan
64404;BME280;50726;54.912;-8.392;2022-08-19T13:10:29;100281.91;;;26.24;nan
64404;BME280;50726;54.912;-8.392;2022-08-19T13:12:55;100287.31;;;25.65;nan
64404;BME280;50726;54.912;-8.392;2022-08-19T13:15:23;100290.63;;;29.90;nan
64404;BME280;50726;54.912;-8.392;2022-08-19T13:17:50;100305.84;;;26.25;nan
64404;BME280;50726;54.912;-8.392;2022-08-19T13:20:19;100290.91;;;26.13;nan